createdAt,value
2023-05-16T00:00:35.220Z,101477.25
2023-05-16T00:03:05.700Z,101477.22
2023-05-16T00:05:33.235Z,101471.84
2023-05-16T00:08:00.681Z,101476.38
2023-05-16T00:10:29.381Z,101479.56
2023-05-16T00:12:57.633Z,101480.41
2023-05-16T00:15:26.182Z,101475.38
2023-05-16T00:17:53.729Z,101476.09
2023-05-16T00:20:23.650Z,101477.50
2023-05-16T00:22:51.459Z,101477.06
2023-05-16T00:25:18.943Z,101475.75
2023-05-16T00:27:46.531Z,101480.09
2023-05-16T00:30:14.200Z,101481.66
2023-05-16T00:32:42.665Z,101476.13
2023-05-16T00:35:11.633Z,101479.56
2023-05-16T00:37:40.276Z,101486.59
2023-05-16T00:40:08.508Z,101483.66
2023-05-16T00:42:36.055Z,101483.41
2023-05-16T00:45:04.059Z,101486.94
2023-05-16T00:47:31.703Z,101489.00
2023-05-16T00:49:59.292Z,101480.16
2023-05-16T00:52:26.746Z,101484.06
2023-05-16T00:54:54.395Z,101486.25
2023-05-16T00:57:21.914Z,101475.66
2023-05-16T00:59:50.169Z,101484.72
2023-05-16T01:02:18.185Z,101480.25
2023-05-16T01:04:48.358Z,101477.53
2023-05-16T01:07:15.771Z,101473.84
2023-05-16T01:09:43.617Z,101468.00
2023-05-16T01:12:41.898Z,101466.97
2023-05-16T01:15:13.837Z,101473.66
2023-05-16T01:17:41.549Z,101475.13
2023-05-16T01:20:15.683Z,101477.84
2023-05-16T01:22:49.064Z,101471.91
2023-05-16T01:25:44.031Z,101468.38
2023-05-16T01:28:16.067Z,101473.13
2023-05-16T01:30:43.889Z,101471.50
2023-05-16T01:33:11.493Z,101477.66
2023-05-16T01:35:56.228Z,101471.25
2023-05-16T01:38:31.025Z,101467.78
2023-05-16T01:41:06.602Z,101467.97
2023-05-16T01:43:37.263Z,101465.06
2023-05-16T01:46:13.151Z,101463.34
2023-05-16T01:49:26.770Z,101460.00
2023-05-16T01:52:11.501Z,101455.41
2023-05-16T01:54:45.234Z,101460.63
2023-05-16T01:57:13.724Z,101461.19
2023-05-16T01:59:43.132Z,101464.28
2023-05-16T02:02:10.809Z,101466.44
2023-05-16T02:04:38.559Z,101462.16
2023-05-16T02:07:06.154Z,101459.91
2023-05-16T02:09:34.585Z,101454.09
2023-05-16T02:12:02.541Z,101458.53
2023-05-16T02:14:30.184Z,101464.47
2023-05-16T02:16:58.100Z,101463.06
2023-05-16T02:19:25.649Z,101470.09
2023-05-16T02:21:52.997Z,101464.75
2023-05-16T02:24:20.648Z,101469.13
2023-05-16T02:26:47.972Z,101473.41
2023-05-16T02:29:16.620Z,101464.28
2023-05-16T02:31:44.035Z,101467.91
2023-05-16T02:34:11.365Z,101464.38
2023-05-16T02:36:38.704Z,101468.09
2023-05-16T02:39:06.131Z,101472.81
2023-05-16T02:41:34.153Z,101463.91
2023-05-16T02:44:01.524Z,101469.41
2023-05-16T02:46:31.133Z,101468.56
2023-05-16T02:48:58.872Z,101461.47
2023-05-16T02:51:28.302Z,101464.53
2023-05-16T02:54:00.727Z,101467.53
2023-05-16T02:56:28.304Z,101468.56
2023-05-16T02:58:56.433Z,101471.38
2023-05-16T03:01:24.216Z,101470.53
2023-05-16T03:03:51.723Z,101472.84
2023-05-16T03:06:19.148Z,101483.78
2023-05-16T03:08:47.411Z,101484.06
2023-05-16T03:11:16.617Z,101484.66
2023-05-16T03:13:44.005Z,101479.81
2023-05-16T03:16:11.460Z,101484.28
2023-05-16T03:18:41.477Z,101478.88
2023-05-16T03:21:08.913Z,101486.53
2023-05-16T03:23:36.425Z,101481.88
2023-05-16T03:26:03.822Z,101482.53
2023-05-16T03:28:31.457Z,101486.44
2023-05-16T03:30:59.000Z,101479.63
2023-05-16T03:33:26.510Z,101483.81
2023-05-16T03:35:53.837Z,101487.84
2023-05-16T03:38:21.710Z,101487.38
2023-05-16T03:40:49.074Z,101490.81
2023-05-16T03:43:16.463Z,101492.88
2023-05-16T03:45:44.423Z,101482.88
2023-05-16T03:48:11.825Z,101488.13
2023-05-16T03:50:41.041Z,101489.59
2023-05-16T03:53:09.844Z,101487.66
2023-05-16T03:55:37.922Z,101478.22
2023-05-16T03:58:05.506Z,101483.00
2023-05-16T04:00:34.597Z,101476.03
2023-05-16T04:03:02.172Z,101470.22
2023-05-16T04:05:29.968Z,101474.47
2023-05-16T04:07:57.876Z,101476.78
2023-05-16T04:10:25.466Z,101471.88
2023-05-16T04:12:52.829Z,101480.97
2023-05-16T04:15:20.318Z,101477.25
2023-05-16T04:17:48.028Z,101478.59
2023-05-16T04:20:15.600Z,101480.78
2023-05-16T04:22:43.117Z,101490.00
2023-05-16T04:25:11.397Z,101489.66
2023-05-16T04:27:39.107Z,101494.66
2023-05-16T04:30:06.982Z,101502.69
2023-05-16T04:32:36.722Z,101494.41
2023-05-16T04:35:07.327Z,101495.72
2023-05-16T04:37:35.879Z,101501.19
2023-05-16T04:40:03.589Z,101498.91
2023-05-16T04:42:32.012Z,101508.22
2023-05-16T04:44:59.373Z,101506.56
2023-05-16T04:47:26.754Z,101507.59
2023-05-16T04:49:54.234Z,101503.25
2023-05-16T04:52:21.641Z,101501.59
2023-05-16T04:54:52.442Z,101499.94
2023-05-16T04:57:19.818Z,101502.22
2023-05-16T04:59:47.533Z,101495.09
2023-05-16T05:02:14.974Z,101494.28
2023-05-16T05:04:42.627Z,101489.25
2023-05-16T05:07:09.987Z,101499.69
2023-05-16T05:09:37.549Z,101499.66
2023-05-16T05:12:05.292Z,101508.88
2023-05-16T05:14:32.705Z,101502.19
2023-05-16T05:17:00.050Z,101507.22
2023-05-16T05:19:27.640Z,101506.75
2023-05-16T05:21:55.032Z,101497.53
2023-05-16T05:24:22.383Z,101510.47
2023-05-16T05:26:49.888Z,101517.56
2023-05-16T05:29:17.201Z,101506.59
2023-05-16T05:31:44.639Z,101504.69
2023-05-16T05:34:12.167Z,101506.53
2023-05-16T05:36:39.625Z,101507.91
2023-05-16T05:39:07.096Z,101502.00
2023-05-16T05:41:35.516Z,101507.50
2023-05-16T05:44:03.042Z,101503.66
2023-05-16T05:46:31.535Z,101503.28
2023-05-16T05:48:59.937Z,101493.75
2023-05-16T05:51:27.451Z,101502.44
2023-05-16T05:53:55.821Z,101506.75
2023-05-16T05:56:24.830Z,101501.53
2023-05-16T05:58:52.171Z,101503.66
2023-05-16T06:01:21.241Z,101509.84
2023-05-16T06:03:48.618Z,101509.91
2023-05-16T06:06:15.982Z,101509.50
2023-05-16T06:08:43.430Z,101507.66
2023-05-16T06:11:10.992Z,101519.34
2023-05-16T06:13:38.431Z,101518.59
2023-05-16T06:16:07.057Z,101524.38
2023-05-16T06:18:36.711Z,101511.78
2023-05-16T06:21:04.582Z,101519.44
2023-05-16T06:23:31.971Z,101506.13
2023-05-16T06:25:59.326Z,101523.88
2023-05-16T06:28:26.677Z,101519.63
2023-05-16T06:30:54.505Z,101517.59
2023-05-16T06:33:22.221Z,101512.13
2023-05-16T06:35:50.520Z,101514.13
2023-05-16T06:38:19.747Z,101515.22
2023-05-16T06:40:47.155Z,101507.91
2023-05-16T06:43:14.616Z,101514.56
2023-05-16T06:45:42.204Z,101514.03
2023-05-16T06:48:09.647Z,101513.06
2023-05-16T06:50:37.223Z,101512.94
2023-05-16T06:53:06.822Z,101510.16
2023-05-16T06:55:34.844Z,101511.50
2023-05-16T06:58:02.387Z,101506.50
2023-05-16T07:00:29.856Z,101508.53
2023-05-16T07:02:57.459Z,101510.63
2023-05-16T07:05:25.151Z,101515.97
2023-05-16T07:07:52.666Z,101513.91
2023-05-16T07:10:20.321Z,101513.19
2023-05-16T07:12:48.710Z,101507.75
2023-05-16T07:15:16.267Z,101507.16
2023-05-16T07:17:44.093Z,101510.72
2023-05-16T07:20:13.746Z,101507.97
2023-05-16T07:22:41.397Z,101508.19
2023-05-16T07:25:12.920Z,101502.16
2023-05-16T07:27:42.278Z,101510.13
2023-05-16T07:30:11.592Z,101513.34
2023-05-16T07:32:40.258Z,101512.28
2023-05-16T07:35:08.224Z,101513.66
2023-05-16T07:37:36.417Z,101517.31
2023-05-16T07:40:07.098Z,101509.13
2023-05-16T07:42:34.665Z,101510.41
2023-05-16T07:45:02.595Z,101509.28
2023-05-16T07:47:30.556Z,101511.69
2023-05-16T07:49:58.129Z,101500.72
2023-05-16T07:52:25.623Z,101510.78
2023-05-16T07:54:53.226Z,101504.22
2023-05-16T07:57:23.239Z,101500.47
2023-05-16T07:59:52.744Z,101500.53
2023-05-16T08:02:21.016Z,101504.19
2023-05-16T08:04:49.150Z,101502.06
2023-05-16T08:07:16.863Z,101506.22
2023-05-16T08:09:44.385Z,101504.09
2023-05-16T08:12:11.821Z,101507.97
2023-05-16T08:14:39.455Z,101509.34
2023-05-16T08:17:06.896Z,101508.06
2023-05-16T08:19:37.832Z,101509.19
2023-05-16T08:22:08.076Z,101508.13
2023-05-16T08:24:36.371Z,101503.72
2023-05-16T08:27:03.888Z,101502.88
2023-05-16T08:29:32.004Z,101506.22
2023-05-16T08:31:59.713Z,101508.72
2023-05-16T08:34:27.197Z,101508.16
2023-05-16T08:36:54.915Z,101502.66
2023-05-16T08:39:22.278Z,101514.78
2023-05-16T08:41:50.134Z,101511.47
2023-05-16T08:44:21.934Z,101507.56
2023-05-16T08:46:54.009Z,101509.28
2023-05-16T08:49:21.812Z,101497.38
2023-05-16T08:51:52.252Z,101492.41
2023-05-16T08:54:22.032Z,101489.06
2023-05-16T08:56:50.929Z,101484.94
2023-05-16T08:59:19.406Z,101481.59
2023-05-16T09:01:47.655Z,101482.66
2023-05-16T09:04:16.585Z,101483.75
2023-05-16T09:06:44.152Z,101475.81
2023-05-16T09:09:13.096Z,101483.81
2023-05-16T09:11:42.527Z,101468.34
2023-05-16T09:14:09.908Z,101479.97
2023-05-16T09:16:37.345Z,101468.66
2023-05-16T09:19:04.996Z,101482.44
2023-05-16T09:21:36.065Z,101483.28
2023-05-16T09:24:07.964Z,101478.59
2023-05-16T09:26:38.174Z,101477.78
2023-05-16T09:29:13.003Z,101470.03
2023-05-16T09:31:41.205Z,101473.34
2023-05-16T09:34:09.476Z,101459.53
2023-05-16T09:36:37.747Z,101461.22
2023-05-16T09:39:08.233Z,101460.66
2023-05-16T09:41:36.584Z,101461.22
2023-05-16T09:44:06.540Z,101457.03
2023-05-16T09:46:37.499Z,101454.59
2023-05-16T09:49:05.027Z,101460.59
2023-05-16T09:51:33.784Z,101454.81
2023-05-16T09:54:01.298Z,101456.19
2023-05-16T09:56:30.252Z,101453.75
2023-05-16T09:58:57.763Z,101451.22
2023-05-16T10:01:26.060Z,101450.13
2023-05-16T10:03:53.787Z,101451.53
2023-05-16T10:06:22.979Z,101452.66
2023-05-16T10:08:51.176Z,101452.34
2023-05-16T10:11:19.410Z,101454.53
2023-05-16T10:13:53.325Z,101448.50
2023-05-16T10:16:23.985Z,101452.34
2023-05-16T10:18:53.251Z,101453.75
2023-05-16T10:21:23.603Z,101445.69
2023-05-16T10:23:53.418Z,101450.69
2023-05-16T10:26:22.698Z,101447.38
2023-05-16T10:28:51.876Z,101451.78
2023-05-16T10:31:21.523Z,101452.63
2023-05-16T10:33:49.122Z,101444.06
2023-05-16T10:36:17.339Z,101446.81
2023-05-16T10:38:46.513Z,101447.09
2023-05-16T10:41:14.470Z,101440.44
2023-05-16T10:43:46.394Z,101442.09
2023-05-16T10:46:14.982Z,101447.38
2023-05-16T10:48:42.538Z,101449.06
2023-05-16T10:51:36.718Z,101442.66
2023-05-16T10:54:15.701Z,101433.75
2023-05-16T10:56:43.661Z,101441.22
2023-05-16T10:59:27.269Z,101439.03
2023-05-16T11:01:56.542Z,101434.06
2023-05-16T11:04:24.220Z,101435.72
2023-05-16T11:06:57.730Z,101436.84
2023-05-16T11:09:27.896Z,101441.84
2023-05-16T11:12:01.144Z,101436.91
2023-05-16T11:14:36.227Z,101432.44
2023-05-16T11:17:20.781Z,101429.69
2023-05-16T11:19:59.750Z,101427.19
2023-05-16T11:22:34.406Z,101435.22
2023-05-16T11:25:07.343Z,101427.72
2023-05-16T11:27:43.422Z,101429.03
2023-05-16T11:30:10.803Z,101429.66
2023-05-16T11:32:40.238Z,101426.06
2023-05-16T11:35:12.151Z,101425.78
2023-05-16T11:37:42.220Z,101425.16
2023-05-16T11:40:12.390Z,101429.59
2023-05-16T11:42:44.974Z,101416.41
2023-05-16T11:45:16.236Z,101415.84
2023-05-16T11:47:45.782Z,101426.34
2023-05-16T11:50:15.810Z,101421.84
2023-05-16T11:52:47.593Z,101423.47
2023-05-16T11:55:28.209Z,101421.53
2023-05-16T11:58:01.572Z,101408.53
2023-05-16T12:00:29.224Z,101425.06
2023-05-16T12:03:03.216Z,101417.56
2023-05-16T12:05:32.942Z,101410.59
2023-05-16T12:08:02.864Z,101417.25
2023-05-16T12:10:34.406Z,101412.81
2023-05-16T12:13:03.641Z,101416.06
2023-05-16T12:15:32.406Z,101418.03
2023-05-16T12:18:00.435Z,101416.84
2023-05-16T12:20:27.924Z,101413.78
2023-05-16T12:22:58.565Z,101421.75
2023-05-16T12:25:32.848Z,101420.13
2023-05-16T12:28:01.971Z,101415.16
2023-05-16T12:30:32.234Z,101411.44
2023-05-16T12:33:20.343Z,101415.84
2023-05-16T12:35:48.087Z,101414.22
2023-05-16T12:38:17.516Z,101409.84
2023-05-16T12:40:45.744Z,101407.06
2023-05-16T12:43:23.236Z,101406.34
2023-05-16T12:45:55.959Z,101413.78
2023-05-16T12:48:30.593Z,101403.59
2023-05-16T12:50:58.349Z,101401.63
2023-05-16T12:53:25.900Z,101405.28
2023-05-16T12:55:53.304Z,101405.13
2023-05-16T12:58:21.242Z,101412.31
2023-05-16T13:00:48.790Z,101404.03
2023-05-16T13:03:16.437Z,101405.41
2023-05-16T13:05:44.013Z,101406.28
2023-05-16T13:08:11.486Z,101402.44
2023-05-16T13:10:39.059Z,101411.72
2023-05-16T13:13:07.643Z,101406.22
2023-05-16T13:15:35.265Z,101406.94
2023-05-16T13:18:02.864Z,101404.94
2023-05-16T13:20:30.926Z,101405.41
2023-05-16T13:22:58.301Z,101403.22
2023-05-16T13:25:25.944Z,101402.63
2023-05-16T13:27:53.565Z,101410.31
2023-05-16T13:30:21.197Z,101398.03
2023-05-16T13:32:48.727Z,101400.47
2023-05-16T13:35:16.190Z,101407.13
2023-05-16T13:37:43.722Z,101394.75
2023-05-16T13:40:11.508Z,101397.31
2023-05-16T13:42:39.290Z,101402.75
2023-05-16T13:45:08.166Z,101404.59
2023-05-16T13:47:36.941Z,101405.19
2023-05-16T13:50:09.332Z,101410.50
2023-05-16T13:52:38.365Z,101411.78
2023-05-16T13:55:06.898Z,101410.56
2023-05-16T13:57:35.441Z,101418.44
2023-05-16T14:02:43.577Z,101412.63
2023-05-16T14:05:10.999Z,101419.97
2023-05-16T14:07:39.632Z,101417.56
2023-05-16T14:10:08.168Z,101411.84
2023-05-16T14:12:36.391Z,101410.66
2023-05-16T14:15:05.152Z,101402.38
2023-05-16T14:17:32.921Z,101400.13
2023-05-16T14:20:00.645Z,101393.69
2023-05-16T14:22:28.740Z,101395.00
2023-05-16T14:24:56.218Z,101397.75
2023-05-16T14:27:23.668Z,101402.69
2023-05-16T14:29:52.683Z,101405.09
2023-05-16T14:32:20.158Z,101397.09
2023-05-16T14:34:47.669Z,101392.69
2023-05-16T14:37:16.363Z,101392.69
2023-05-16T14:39:46.655Z,101394.84
2023-05-16T14:42:14.121Z,101395.34
2023-05-16T14:44:41.467Z,101391.34
2023-05-16T14:47:09.061Z,101392.84
2023-05-16T14:49:36.890Z,101394.50
2023-05-16T14:52:04.634Z,101390.53
2023-05-16T14:54:32.445Z,101388.72
2023-05-16T14:57:00.301Z,101386.84
2023-05-16T14:59:28.228Z,101384.03
2023-05-16T15:01:55.676Z,101390.84
2023-05-16T15:04:23.130Z,101391.59
2023-05-16T15:06:50.738Z,101392.44
2023-05-16T15:09:19.205Z,101395.81
2023-05-16T15:11:47.106Z,101395.41
2023-05-16T15:14:14.614Z,101395.59
2023-05-16T15:16:42.551Z,101389.06
2023-05-16T15:19:10.088Z,101391.69
2023-05-16T15:21:37.534Z,101390.72
2023-05-16T15:24:05.299Z,101391.44
2023-05-16T15:26:32.871Z,101392.69
2023-05-16T15:29:00.242Z,101390.00
2023-05-16T15:31:27.891Z,101384.63
2023-05-16T15:33:55.445Z,101388.56
2023-05-16T15:36:22.901Z,101385.34
2023-05-16T15:38:50.361Z,101391.31
2023-05-16T15:41:32.104Z,101379.44
2023-05-16T15:44:05.598Z,101388.59
2023-05-16T15:46:33.417Z,101378.47
2023-05-16T15:49:01.164Z,101391.91
2023-05-16T15:51:28.657Z,101391.66
2023-05-16T15:53:56.071Z,101392.06
2023-05-16T15:56:23.709Z,101398.84
2023-05-16T15:58:53.173Z,101396.34
2023-05-16T16:01:20.616Z,101394.09
2023-05-16T16:03:48.152Z,101396.94
2023-05-16T16:06:15.704Z,101390.25
2023-05-16T16:08:43.319Z,101386.81
2023-05-16T16:11:10.930Z,101387.66
2023-05-16T16:13:38.527Z,101388.97
2023-05-16T16:16:06.667Z,101396.09
2023-05-16T16:18:34.920Z,101398.72
2023-05-16T16:21:02.406Z,101391.56
2023-05-16T16:23:31.662Z,101389.69
2023-05-16T16:25:59.302Z,101385.78
2023-05-16T16:28:27.135Z,101386.13
2023-05-16T16:30:54.841Z,101388.03
2023-05-16T16:33:22.321Z,101390.03
2023-05-16T16:35:51.919Z,101388.50
2023-05-16T16:38:19.863Z,101389.69
2023-05-16T16:40:47.267Z,101394.69
2023-05-16T16:43:15.532Z,101401.09
2023-05-16T16:45:43.215Z,101405.28
2023-05-16T16:48:11.794Z,101408.38
2023-05-16T16:50:40.824Z,101412.31
2023-05-16T16:53:08.544Z,101409.56
2023-05-16T16:55:38.260Z,101410.75
2023-05-16T16:58:07.752Z,101408.84
2023-05-16T17:00:35.213Z,101413.25
2023-05-16T17:03:04.964Z,101407.66
2023-05-16T17:05:32.648Z,101413.00
2023-05-16T17:08:00.083Z,101418.97
2023-05-16T17:10:27.504Z,101404.34
2023-05-16T17:12:54.945Z,101407.31
2023-05-16T17:15:22.411Z,101404.94
2023-05-16T17:17:50.115Z,101407.19
2023-05-16T17:20:17.619Z,101410.41
2023-05-16T17:22:46.100Z,101418.97
2023-05-16T17:25:13.498Z,101415.03
2023-05-16T17:27:41.093Z,101422.66
2023-05-16T17:30:10.573Z,101421.81
2023-05-16T17:32:39.859Z,101426.84
2023-05-16T17:35:07.845Z,101422.19
2023-05-16T17:37:35.317Z,101426.59
2023-05-16T17:40:02.857Z,101420.28
2023-05-16T17:42:30.595Z,101431.59
2023-05-16T17:44:58.017Z,101427.81
2023-05-16T17:47:25.853Z,101439.47
2023-05-16T17:49:53.277Z,101438.84
2023-05-16T17:52:22.227Z,101444.66
2023-05-16T17:54:49.584Z,101446.78
2023-05-16T17:57:17.047Z,101445.25
2023-05-16T17:59:45.558Z,101448.00
2023-05-16T18:02:15.612Z,101457.72
2023-05-16T18:04:43.343Z,101463.53
2023-05-16T18:07:10.796Z,101465.28
2023-05-16T18:09:38.683Z,101472.03
2023-05-16T18:12:07.159Z,101478.81
2023-05-16T18:14:35.275Z,101477.50
2023-05-16T18:17:03.755Z,101482.91
2023-05-16T18:19:32.155Z,101478.81
2023-05-16T18:22:00.191Z,101477.81
2023-05-16T18:24:27.783Z,101481.66
2023-05-16T18:26:55.274Z,101475.13
2023-05-16T18:29:23.648Z,101480.22
2023-05-16T18:31:51.205Z,101481.28
2023-05-16T18:34:18.846Z,101478.56
2023-05-16T18:36:46.496Z,101478.28
2023-05-16T18:39:14.214Z,101484.22
2023-05-16T18:41:41.738Z,101486.72
2023-05-16T18:44:09.287Z,101485.28
2023-05-16T18:46:37.026Z,101483.00
2023-05-16T18:49:04.483Z,101479.81
2023-05-16T18:51:32.352Z,101478.81
2023-05-16T18:53:59.911Z,101479.75
2023-05-16T18:56:27.573Z,101479.84
2023-05-16T18:58:55.122Z,101480.59
2023-05-16T19:01:22.809Z,101475.13
2023-05-16T19:03:50.458Z,101482.09
2023-05-16T19:06:17.910Z,101485.47
2023-05-16T19:08:47.954Z,101482.91
2023-05-16T19:11:18.336Z,101483.72
2023-05-16T19:13:46.326Z,101481.69
2023-05-16T19:16:14.076Z,101474.09
2023-05-16T19:18:41.769Z,101477.19
2023-05-16T19:21:11.053Z,101472.41
2023-05-16T19:23:39.317Z,101468.63
2023-05-16T19:26:07.033Z,101465.66
2023-05-16T19:28:34.926Z,101465.72
2023-05-16T19:31:02.367Z,101466.56
2023-05-16T19:33:29.880Z,101463.38
2023-05-16T19:35:58.666Z,101470.34
2023-05-16T19:38:26.658Z,101462.53
2023-05-16T19:40:54.724Z,101470.66
2023-05-16T19:43:22.131Z,101471.03
2023-05-16T19:45:49.727Z,101473.53
2023-05-16T19:48:17.868Z,101466.63
2023-05-16T19:50:46.202Z,101473.16
2023-05-16T19:53:13.566Z,101468.63
2023-05-16T19:55:41.187Z,101467.69
2023-05-16T19:58:08.789Z,101462.69
2023-05-16T20:00:36.261Z,101455.09
2023-05-16T20:03:03.805Z,101454.28
2023-05-16T20:05:31.565Z,101448.59
2023-05-16T20:07:59.357Z,101450.28
2023-05-16T20:10:26.806Z,101448.66
2023-05-16T20:12:54.643Z,101447.66
2023-05-16T20:15:22.124Z,101456.03
2023-05-16T20:17:49.598Z,101441.75
2023-05-16T20:20:17.449Z,101443.88
2023-05-16T20:22:45.044Z,101445.31
2023-05-16T20:25:12.421Z,101441.06
2023-05-16T20:27:40.193Z,101446.06
2023-05-16T20:30:08.181Z,101447.03
2023-05-16T20:32:36.470Z,101439.91
2023-05-16T20:35:05.036Z,101435.72
2023-05-16T20:37:32.508Z,101444.06
2023-05-16T20:39:59.996Z,101452.03
2023-05-16T20:42:27.426Z,101439.28
2023-05-16T20:44:54.919Z,101442.63
2023-05-16T20:47:22.390Z,101438.31
2023-05-16T20:49:49.912Z,101428.97
2023-05-16T20:52:17.804Z,101436.09
2023-05-16T20:54:46.029Z,101421.81
2023-05-16T20:57:13.385Z,101428.00
2023-05-16T20:59:41.005Z,101422.66
2023-05-16T21:02:11.789Z,101422.16
2023-05-16T21:04:39.793Z,101429.97
2023-05-16T21:07:08.558Z,101430.75
2023-05-16T21:09:37.918Z,101430.09
2023-05-16T21:12:05.916Z,101431.88
2023-05-16T21:14:33.377Z,101429.53
2023-05-16T21:17:00.842Z,101431.25
2023-05-16T21:19:33.972Z,101431.88
2023-05-16T21:22:04.112Z,101435.53
2023-05-16T21:24:35.733Z,101435.59
2023-05-16T21:27:04.287Z,101446.94
2023-05-16T21:29:31.729Z,101443.16
2023-05-16T21:31:59.156Z,101441.28
2023-05-16T21:34:26.654Z,101439.94
2023-05-16T21:36:54.255Z,101433.53
2023-05-16T21:39:21.714Z,101429.44
2023-05-16T21:41:49.151Z,101434.47
2023-05-16T21:44:18.600Z,101436.59
2023-05-16T21:46:46.192Z,101428.31
2023-05-16T21:49:13.738Z,101428.22
2023-05-16T21:51:42.380Z,101420.72
2023-05-16T21:54:09.828Z,101425.13
2023-05-16T21:56:37.382Z,101425.72
2023-05-16T21:59:04.906Z,101423.53
2023-05-16T22:01:32.786Z,101426.72
2023-05-16T22:04:00.467Z,101417.44
2023-05-16T22:06:27.947Z,101412.94
2023-05-16T22:08:55.906Z,101421.03
2023-05-16T22:11:23.484Z,101418.56
2023-05-16T22:13:51.394Z,101416.91
2023-05-16T22:16:18.903Z,101419.88
2023-05-16T22:18:46.728Z,101419.34
2023-05-16T22:21:16.372Z,101422.44
2023-05-16T22:23:43.856Z,101419.50
2023-05-16T22:26:11.503Z,101414.03
2023-05-16T22:28:38.954Z,101414.84
2023-05-16T22:31:06.562Z,101405.63
2023-05-16T22:33:34.066Z,101405.69
2023-05-16T22:36:03.321Z,101412.00
2023-05-16T22:38:32.045Z,101414.00
2023-05-16T22:40:59.517Z,101409.38
2023-05-16T22:43:26.993Z,101412.63
2023-05-16T22:45:54.528Z,101416.91
2023-05-16T22:48:22.195Z,101420.69
2023-05-16T22:50:49.672Z,101415.44
2023-05-16T22:53:17.098Z,101415.22
2023-05-16T22:55:44.457Z,101421.28
2023-05-16T22:58:11.842Z,101418.41
2023-05-16T23:00:39.312Z,101423.56
2023-05-16T23:03:06.748Z,101428.19
2023-05-16T23:05:34.986Z,101418.56
2023-05-16T23:08:03.350Z,101424.03
2023-05-16T23:10:31.607Z,101420.22
2023-05-16T23:12:59.234Z,101421.16
2023-05-16T23:15:26.917Z,101420.28
2023-05-16T23:17:54.821Z,101422.00
2023-05-16T23:20:22.624Z,101422.50
2023-05-16T23:22:50.087Z,101427.88
2023-05-16T23:25:17.555Z,101429.88
2023-05-16T23:27:45.064Z,101430.56
2023-05-16T23:30:12.891Z,101434.91
2023-05-16T23:32:40.691Z,101434.06
2023-05-16T23:35:08.636Z,101437.69
2023-05-16T23:37:36.284Z,101447.78
2023-05-16T23:40:03.940Z,101449.03
2023-05-16T23:42:31.877Z,101444.50
2023-05-16T23:45:00.215Z,101440.72
2023-05-16T23:47:27.806Z,101458.16
2023-05-16T23:49:55.344Z,101448.31
2023-05-16T23:52:22.837Z,101445.81
2023-05-16T23:54:50.349Z,101442.09
2023-05-16T23:57:17.806Z,101441.63
2023-05-16T23:59:45.261Z,101452.69
